createdAt,value
2018-06-22T10:29:21.435Z,44.00
2018-06-22T10:31:50.315Z,51.70
2018-06-22T10:34:19.184Z,55.60
2018-06-22T10:36:48.075Z,56.40
2018-06-22T10:39:17.090Z,59.10
2018-06-22T10:41:46.042Z,64.30
2018-06-22T10:44:14.932Z,63.00
2018-06-22T10:46:43.860Z,64.50
2018-06-22T10:49:12.700Z,68.40
2018-06-22T10:51:41.736Z,66.20
2018-06-22T10:54:10.629Z,65.20
2018-06-22T10:56:39.568Z,66.20
2018-06-22T10:59:08.559Z,64.00
2018-06-22T11:01:37.424Z,64.80
2018-06-22T11:04:06.580Z,59.20
2018-06-22T11:06:35.490Z,59.00
2018-06-22T11:09:06.503Z,55.90
2018-06-22T11:11:35.447Z,54.00
2018-06-22T11:16:32.884Z,53.30
2018-06-22T11:19:02.085Z,54.40
2018-06-22T11:21:30.940Z,54.60
2018-06-22T11:23:59.884Z,53.20
2018-06-22T11:26:28.785Z,53.50
2018-06-22T11:33:54.685Z,52.70
2018-06-22T11:36:23.629Z,51.30
2018-06-22T11:38:52.568Z,52.30
2018-06-22T11:41:21.489Z,53.70
2018-06-22T11:43:50.434Z,53.30
2018-06-22T11:46:19.325Z,50.70
2018-06-22T11:48:48.332Z,50.10
2018-06-22T11:51:17.282Z,50.90
2018-06-22T11:53:46.179Z,51.80
2018-06-22T11:56:15.051Z,49.50
2018-06-22T12:01:12.479Z,50.00
2018-06-22T12:03:41.422Z,52.10
2018-06-22T12:06:10.371Z,50.50
2018-06-22T12:08:39.279Z,51.50
2018-06-22T12:11:08.184Z,50.80
2018-06-22T12:21:02.660Z,53.10
2018-06-22T12:23:31.621Z,52.70
2018-06-22T12:26:00.541Z,52.10
2018-06-22T12:28:29.417Z,53.10
2018-06-22T12:30:58.334Z,52.90
2018-06-22T12:33:27.215Z,53.00
2018-06-22T12:35:56.176Z,53.10
2018-06-22T12:38:25.035Z,54.70
2018-06-22T12:40:53.933Z,52.80
2018-06-22T12:43:22.831Z,52.00
2018-06-22T12:48:20.215Z,52.30
2018-06-22T12:50:49.112Z,51.80
2018-06-22T12:53:17.986Z,52.00
2018-06-22T12:58:15.837Z,49.80
2018-06-22T13:00:44.674Z,51.20
2018-06-22T13:03:13.591Z,51.00
2018-06-22T13:05:42.482Z,50.70
2018-06-22T13:08:11.388Z,50.90
2018-06-22T13:10:40.351Z,50.20
2018-06-22T13:13:09.262Z,50.70
2018-06-22T13:15:38.243Z,49.50
2018-06-22T13:18:07.165Z,50.50
2018-06-22T13:20:38.657Z,49.90
2018-06-22T13:23:07.933Z,49.80
2018-06-22T13:25:36.844Z,49.20
2018-06-22T13:28:06.080Z,48.50
2018-06-22T13:30:35.349Z,48.50
2018-06-22T13:33:04.262Z,50.00
2018-06-22T13:35:33.213Z,49.30
2018-06-22T13:38:02.120Z,48.10
2018-06-22T13:40:31.055Z,47.30
2018-06-22T13:42:59.994Z,48.40
2018-06-22T13:45:28.917Z,47.90
2018-06-22T13:47:59.025Z,49.40
2018-06-22T13:50:27.931Z,48.10
2018-06-22T13:52:56.821Z,46.00
2018-06-22T13:55:25.734Z,47.20
2018-06-22T13:57:54.641Z,46.90
2018-06-22T14:00:23.572Z,46.90
2018-06-22T14:02:52.419Z,46.90
2018-06-22T14:05:26.659Z,45.30
2018-06-22T14:07:55.514Z,44.70
2018-06-22T14:10:24.435Z,45.50
2018-06-22T14:12:53.319Z,44.80
2018-06-22T14:15:22.258Z,46.60
2018-06-22T14:17:51.190Z,46.00
2018-06-22T14:20:20.151Z,45.50
2018-06-22T14:22:49.534Z,45.40
2018-06-22T14:25:18.665Z,45.80
2018-06-22T14:27:47.675Z,45.90
2018-06-22T14:32:45.045Z,45.20
2018-06-22T14:37:42.496Z,45.50
2018-06-22T14:40:12.379Z,45.30
2018-06-22T14:42:41.252Z,44.70
2018-06-22T14:45:10.126Z,44.80
2018-06-22T14:50:11.773Z,43.50
2018-06-22T14:52:40.663Z,43.70
2018-06-22T14:55:14.737Z,43.90
2018-06-22T14:57:48.746Z,44.20
2018-06-22T15:00:22.921Z,44.10
2018-06-22T15:02:56.924Z,44.40
2018-06-22T15:05:31.091Z,43.80
2018-06-22T15:08:01.827Z,44.10
2018-06-22T15:10:30.795Z,44.60
2018-06-22T15:12:59.672Z,44.20
2018-06-22T15:15:28.630Z,45.10
2018-06-22T15:17:57.574Z,44.40
2018-06-22T15:20:26.512Z,45.30
2018-06-22T15:22:55.428Z,45.30
2018-06-22T15:25:24.344Z,44.40
2018-06-22T15:27:53.207Z,43.90
2018-06-22T15:30:22.208Z,44.60
2018-06-22T15:32:51.167Z,42.70
2018-06-22T15:37:59.248Z,44.30
2018-06-22T15:40:33.772Z,44.40
2018-06-22T15:43:08.167Z,44.30
2018-06-22T15:45:42.609Z,43.60
2018-06-22T15:48:16.825Z,43.90
2018-06-22T15:50:50.922Z,44.50
2018-06-22T15:53:25.020Z,44.90
2018-06-22T15:55:58.189Z,45.00
2018-06-22T15:58:27.248Z,45.60
2018-06-22T16:00:56.219Z,46.00
2018-06-22T16:04:00.492Z,47.60
2018-06-22T16:08:58.597Z,47.20
2018-06-22T16:11:28.649Z,46.80
2018-06-22T16:16:36.676Z,46.70
2018-06-22T16:19:10.794Z,48.50
2018-06-22T16:21:45.091Z,48.90
2018-06-22T16:24:19.407Z,49.60
2018-06-22T16:26:53.458Z,48.10
2018-06-22T16:29:22.372Z,48.50
2018-06-22T16:31:51.395Z,48.20
2018-06-22T16:34:20.266Z,49.00
2018-06-22T16:36:49.215Z,48.60
2018-06-22T16:39:18.105Z,48.50
2018-06-22T16:41:47.033Z,49.20
2018-06-22T16:44:15.929Z,49.50
2018-06-22T16:46:44.855Z,49.80
2018-06-22T16:49:13.767Z,50.20
2018-06-22T16:51:42.737Z,50.70
2018-06-22T16:54:11.620Z,50.60
2018-06-22T16:56:40.561Z,50.70
2018-06-22T17:01:37.893Z,53.50
2018-06-22T17:04:06.790Z,54.00
2018-06-22T17:09:14.933Z,54.70
2018-06-22T17:11:49.102Z,53.10
2018-06-22T17:14:23.474Z,53.60
2018-06-22T17:19:26.277Z,55.10
2018-06-22T17:24:23.621Z,54.40
2018-06-22T17:26:52.538Z,54.50
2018-06-22T17:31:49.910Z,53.80
2018-06-22T17:36:47.274Z,53.70
2018-06-22T17:41:44.674Z,54.20
2018-06-22T17:44:13.519Z,54.30
2018-06-22T17:46:42.441Z,54.50
2018-06-22T17:49:11.453Z,54.20
2018-06-22T17:51:40.556Z,53.50
2018-06-22T17:54:09.558Z,53.90
2018-06-22T17:56:38.436Z,54.30
2018-06-22T17:59:12.626Z,54.00
2018-06-22T18:01:47.015Z,54.20
2018-06-22T18:04:21.399Z,54.50
2018-06-22T18:06:55.732Z,55.60
2018-06-22T18:09:29.887Z,54.10
2018-06-22T18:14:32.634Z,52.20
2018-06-22T18:17:01.567Z,53.60
2018-06-22T18:21:59.040Z,53.20
2018-06-22T18:26:56.377Z,52.70
2018-06-22T18:29:25.282Z,52.30
2018-06-22T18:31:54.201Z,52.40
2018-06-22T18:34:23.092Z,52.70
2018-06-22T18:36:52.043Z,53.50
2018-06-22T18:39:20.955Z,53.60
2018-06-22T18:44:18.558Z,53.60
2018-06-22T18:46:47.812Z,53.30
2018-06-22T18:49:16.672Z,54.20
2018-06-22T18:51:45.684Z,56.40
2018-06-22T18:54:19.747Z,57.40
2018-06-22T18:56:53.970Z,57.60
2018-06-22T18:59:27.930Z,56.80
2018-06-22T19:02:01.948Z,56.90
2018-06-22T19:04:30.863Z,57.00
2018-06-22T19:06:59.819Z,57.40
2018-06-22T19:09:28.734Z,57.10
2018-06-22T19:14:26.202Z,58.70
2018-06-22T19:19:23.572Z,57.50
2018-06-22T19:24:20.995Z,57.20
2018-06-22T19:26:49.952Z,57.90
2018-06-22T19:29:18.905Z,57.60
2018-06-22T19:31:47.792Z,57.70
2018-06-22T19:34:19.189Z,56.10
2018-06-22T19:36:48.114Z,56.30
2018-06-22T19:39:17.114Z,54.90
2018-06-22T19:41:45.979Z,55.20
2018-06-22T19:44:20.159Z,54.70
2018-06-22T19:46:54.329Z,54.60
2018-06-22T19:49:28.476Z,53.20
2018-06-22T19:54:31.273Z,55.00
2018-06-22T19:59:28.616Z,53.60
2018-06-22T20:01:57.526Z,54.80
2018-06-22T20:04:26.386Z,55.30
2018-06-22T20:06:55.269Z,54.20
2018-06-22T20:09:24.309Z,55.60
2018-06-22T20:14:24.504Z,53.00
2018-06-22T20:16:53.727Z,52.10
2018-06-22T20:19:22.650Z,53.50
2018-06-22T20:21:51.580Z,57.10
2018-06-22T20:24:24.700Z,58.90
2018-06-22T20:26:53.655Z,61.30
2018-06-22T20:29:22.561Z,59.30
2018-06-22T20:31:51.480Z,57.40
2018-06-22T20:39:32.929Z,57.00
2018-06-22T20:42:07.081Z,54.50
2018-06-22T20:44:41.244Z,51.60
2018-06-22T20:47:15.418Z,51.20
2018-06-22T20:49:49.565Z,50.20
2018-06-22T20:52:18.491Z,51.80
2018-06-22T20:54:47.460Z,56.20
2018-06-22T20:57:16.380Z,57.30
2018-06-22T20:59:45.440Z,58.30
2018-06-22T21:02:15.177Z,59.70
2018-06-22T21:04:44.131Z,59.80
2018-06-22T21:09:41.596Z,63.10
2018-06-22T21:14:39.020Z,61.10
2018-06-22T21:17:07.976Z,61.70
2018-06-22T21:19:36.887Z,62.00
2018-06-22T21:22:12.625Z,62.10
2018-06-22T21:24:42.076Z,61.50
2018-06-22T21:27:16.210Z,60.60
2018-06-22T21:32:24.078Z,59.80
2018-06-22T21:34:58.540Z,59.70
2018-06-22T21:37:32.719Z,60.50
2018-06-22T21:40:02.091Z,61.80
2018-06-22T21:42:30.972Z,61.80
2018-06-22T21:44:59.865Z,62.60
2018-06-22T21:47:28.764Z,63.60
2018-06-22T21:49:57.711Z,65.10
2018-06-22T21:52:26.579Z,65.00
2018-06-22T21:54:55.949Z,65.40
2018-06-22T21:57:24.936Z,66.30
2018-06-22T21:59:53.836Z,64.40
2018-06-22T22:02:22.822Z,60.40
2018-06-22T22:04:52.038Z,59.50
2018-06-22T22:07:21.460Z,58.70
2018-06-22T22:09:50.361Z,59.40
2018-06-22T22:12:19.584Z,60.50
2018-06-22T22:14:48.491Z,61.80
2018-06-22T22:17:17.386Z,61.20
2018-06-22T22:19:46.324Z,61.50
2018-06-22T22:22:15.266Z,62.20
2018-06-22T22:24:44.212Z,62.80
2018-06-22T22:27:13.545Z,65.40
2018-06-22T22:29:42.856Z,68.60
2018-06-22T22:32:12.209Z,68.00
2018-06-22T22:34:41.364Z,66.80
2018-06-22T22:37:10.577Z,67.30
2018-06-22T22:39:39.456Z,66.70
2018-06-22T22:42:08.343Z,67.20
2018-06-22T22:44:37.251Z,66.50
2018-06-22T22:47:06.165Z,66.50
2018-06-22T22:49:35.043Z,68.30
2018-06-22T22:52:03.963Z,70.00
2018-06-22T22:54:33.283Z,69.60
2018-06-22T22:57:02.184Z,69.30
2018-06-22T22:59:31.090Z,69.20
2018-06-22T23:02:00.284Z,67.90
2018-06-22T23:04:29.204Z,67.80
2018-06-22T23:06:58.132Z,68.20
2018-06-22T23:11:55.912Z,69.20
2018-06-22T23:16:53.621Z,71.50
2018-06-22T23:19:22.597Z,74.70
2018-06-22T23:21:51.536Z,78.50
2018-06-22T23:24:20.413Z,80.80
2018-06-22T23:26:49.352Z,80.90
2018-06-22T23:31:47.259Z,79.50
2018-06-22T23:34:16.567Z,79.50
2018-06-22T23:36:45.611Z,78.40
2018-06-22T23:39:14.503Z,80.10
2018-06-22T23:41:43.413Z,83.40
2018-06-22T23:46:40.835Z,81.90
2018-06-22T23:49:09.771Z,81.10
2018-06-22T23:51:38.714Z,81.60
2018-06-22T23:54:07.891Z,83.60
2018-06-22T23:56:36.807Z,84.80
2018-06-22T23:59:05.789Z,84.50
